»·PEaware :: N518HH KRAL-KSAN

N518HH :: KRAL-KSAN

FLIGHT INFORMATION

Flight Status: Arrived
Operator: Privately registered:
United States
More flights under this callsign
Pilot: Edward H. (2712)
Aircraft: BELL TEXTRON JET RANGER
(B06)
More flights by this aircraft type
Origin: KRAL Riverside Mun
United States
Destination: KSAN San Diego Intl-Lindbergh
United States
More flights between these airports :: More routes between these airports
Route: +
File this flight plan on PilotEdge
Remarks:
Altitude:
(Current/Filed)
0ft
Speed:
(Current/Filed)
0kts
Departed: 29-Jan-19 10:27 AM
Arrived: 29-Jan-19 11:07 AM
Distance/Time
Traveled:
74nm/0:40
Distance/Time
To Go:
Arrived

Flight Plot

Page will automatically refresh every two minutes.


Map Options




Map Legend


Flown Route
Filed Route
Departure Airport
Arrival Airport
Navaid (VOR, NDB)
Fix

Horizontal Profiles

Position Reports

Time Latitude Longitude Heading Altitude Ground
Speed
29-Jan-19 10:25 33.957870 -117.420778 182 2955ft 114kts
29-Jan-19 10:26 33.922541 -117.420147 169 2974ft 125kts
29-Jan-19 10:27 33.889259 -117.414559 175 3558ft 120kts
29-Jan-19 10:28 33.851690 -117.412660 172 3586ft 148kts
29-Jan-19 10:29 33.808813 -117.405687 168 3028ft 150kts
29-Jan-19 10:30 33.771794 -117.387771 144 3073ft 137kts
29-Jan-19 10:31 33.740228 -117.364465 150 3500ft 134kts
29-Jan-19 10:32 33.706852 -117.340911 145 3620ft 137kts
29-Jan-19 10:33 33.678257 -117.312422 139 4020ft 126kts
29-Jan-19 10:34 33.649637 -117.286405 144 4187ft 148kts
29-Jan-19 10:35 33.613989 -117.257774 144 4143ft 152kts
29-Jan-19 10:36 33.584119 -117.224613 137 4427ft 153kts
29-Jan-19 10:37 33.553856 -117.190213 132 4813ft 129kts
29-Jan-19 10:38 33.523162 -117.169890 163 5182ft 154kts
29-Jan-19 10:39 33.479425 -117.160152 158 5047ft 148kts
29-Jan-19 10:40 33.443646 -117.144672 180 5457ft 152kts
29-Jan-19 10:41 33.399026 -117.155221 184 4948ft 165kts
29-Jan-19 10:42 33.351396 -117.152320 169 4268ft 165kts
29-Jan-19 10:43 33.308276 -117.145385 175 4456ft 151kts
29-Jan-19 10:44 33.265163 -117.142597 171 4392ft 151kts
29-Jan-19 10:45 33.227991 -117.131524 165 5245ft 118kts
29-Jan-19 10:46 33.188600 -117.123362 174 4986ft 155kts
29-Jan-19 10:47 33.148598 -117.116961 166 5137ft 156kts
29-Jan-19 10:48 33.106024 -117.102274 163 4677ft 167kts
29-Jan-19 10:49 33.063175 -117.079532 132 3891ft 161kts
29-Jan-19 10:50 33.037813 -117.041087 125 4173ft 132kts
29-Jan-19 10:51 33.016458 -117.005719 125 4635ft 134kts
29-Jan-19 10:52 32.990107 -116.968198 147 4351ft 149kts
29-Jan-19 10:53 32.951743 -116.962907 197 4454ft 143kts
29-Jan-19 10:54 32.912670 -116.974570 185 4448ft 139kts
29-Jan-19 10:55 32.875185 -116.973195 173 4774ft 127kts
29-Jan-19 10:56 32.832575 -116.964351 160 3786ft 163kts
29-Jan-19 10:57 32.789862 -116.952154 168 3383ft 152kts
29-Jan-19 10:58 32.748650 -116.946257 176 3213ft 124kts
29-Jan-19 11:00 32.706844 -116.947848 185 2576ft 129kts
29-Jan-19 11:01 32.678950 -116.976702 209 2299ft 161kts
29-Jan-19 11:02 32.650983 -117.014280 251 1783ft 126kts
29-Jan-19 11:03 32.651538 -117.058251 277 1875ft 133kts
29-Jan-19 11:04 32.671136 -117.099173 308 1556ft 152kts
29-Jan-19 11:05 32.702697 -117.132882 315 1109ft 160kts
29-Jan-19 11:06 32.729205 -117.169156 300 313ft 99kts
29-Jan-19 11:07 32.732806 -117.188526 194 43ft 14kts
29-Jan-19 11:08 32.732367 -117.188976 282 33ft 16kts
29-Jan-19 11:09 32.731529 -117.190330 202 21ft 0kts
29-Jan-19 11:10 32.731529 -117.190330 202 21ft 0kts
29-Jan-19 11:11 32.731529 -117.190330 202 21ft 0kts
29-Jan-19 11:12 32.731529 -117.190330 202 21ft 0kts
29-Jan-19 11:13 32.731529 -117.190330 202 21ft 0kts
29-Jan-19 11:14 32.731529 -117.190330 202 21ft 0kts
29-Jan-19 11:15 32.731529 -117.190330 202 21ft 0kts
29-Jan-19 11:16 32.731529 -117.190330 202 21ft 0kts
29-Jan-19 11:16 32.731529 -117.190330 202 21ft 0kts
29-Jan-19 11:18 32.731529 -117.190330 202 21ft 0kts
29-Jan-19 11:19 32.731529 -117.190330 202 21ft 0kts
29-Jan-19 11:20 32.731529 -117.190330 202 21ft 0kts
29-Jan-19 11:21 32.731529 -117.190330 202 21ft 0kts

Navigation Log

Ident Type
Flight plan parsing failed, navigation log unavailable